Terminal Aerodrome Forecast
Issued by NWS

Home | Current Version | Previous Version | Text Only | Print | Product List | Glossary On
Versions: 1 2 3 4 5 6 7 8 9 10 11 12 13 14 15 16 17 18
000
FTUS41 KPBZ 171700
TAFDUJ
TAF
KDUJ 171720Z 1718/1818 VRB03KT P6SM BKN040
     FM180900 36004KT 4SM BR SCT025
     FM181200 36005KT P6SM SCT035=

USA.gov is the U.S. government's official web portal to all federal, state and local government web resources and services.